Time;durP1;ratioP1;P1;durP2;ratioP2;P2;SDS_P1;SDS_P2;PMS_P1;PMS_P2;Temp;Humidity;BMP_temperature;BMP_pressure;BME280_temperature;BME280_humidity;BME280_pressure;Samples;Min_cycle;Max_cycle;Signal;HPM_P1;HPM_P2
2022/03/11 00:02:02;;;;;;;;;;;;;;;8.13;37.35;100758.28;6134988;23;6936;-74
2022/03/11 00:04:28;;;;;;;;;;;;;;;8.05;37.72;100757.81;6112065;23;6974;-75
2022/03/11 00:06:53;;;;;;;;;;;;;;;7.99;37.67;100758.31;6112224;23;7033;-75
2022/03/11 00:09:19;;;;;;;;;;;;;;;7.92;38.25;100754.47;6113251;23;6778;-75
2022/03/11 00:11:45;;;;;;;;;;;;;;;7.89;37.55;100759.34;6112097;23;7010;-75
2022/03/11 00:14:10;;;;;;;;;;;;;;;7.86;38.04;100754.06;6111579;23;6774;-75
2022/03/11 00:16:36;;;;;;;;;;;;;;;7.87;38.23;100762.59;6112865;23;6812;-75
2022/03/11 00:19:02;;;;;;;;;;;;;;;7.86;38.19;100759.16;6114050;23;6845;-75
2022/03/11 00:21:27;;;;;;;;;;;;;;;7.86;38.34;100759.16;6111952;23;6931;-75
2022/03/11 00:23:53;;;;;;;;;;;;;;;7.86;38.66;100748.06;6112561;23;6862;-75
2022/03/11 00:26:19;;;;;;;;;;;;;;;7.85;37.97;100757.41;6112783;23;6869;-75
2022/03/11 00:28:44;;;;;;;;;;;;;;;7.87;38.46;100750.72;6111600;23;7009;-75
2022/03/11 00:31:10;;;;;;;;;;;;;;;7.89;37.91;100749.16;6085719;23;7390;-75
2022/03/11 00:33:36;;;;;;;;;;;;;;;7.92;37.96;100749.38;6111571;23;6980;-75
2022/03/11 00:36:02;;;;;;;;;;;;;;;7.95;37.75;100742.69;6111364;23;6898;-75
2022/03/11 00:38:28;;;;;;;;;;;;;;;7.98;38.46;100742.88;6087565;23;7551;-75
2022/03/11 00:40:56;;;;;;;;;;;;;;;8.02;37.85;100742.31;6113962;23;6774;-75
2022/03/11 00:43:23;;;;;;;;;;;;;;;8.05;38.20;100743.34;6111445;23;7966;-75
2022/03/11 00:45:50;;;;;;;;;;;;;;;8.09;37.28;100744.44;6111228;23;6840;-75
2022/03/11 00:48:15;;;;;;;;;;;;;;;8.10;37.96;100748.75;6112810;23;6874;-75
2022/03/11 00:50:41;;;;;;;;;;;;;;;8.10;38.29;100742.78;6115431;23;6846;-75
2022/03/11 00:53:07;;;;;;;;;;;;;;;8.08;38.48;100746.91;6113459;23;6908;-75
2022/03/11 00:55:32;;;;;;;;;;;;;;;8.03;38.05;100739.81;6112542;23;7059;-75
2022/03/11 00:57:58;;;;;;;;;;;;;;;7.96;37.68;100735.09;6111543;23;6779;-75
2022/03/11 01:00:24;;;;;;;;;;;;;;;7.91;38.83;100741.59;6112260;23;6791;-75
2022/03/11 01:02:50;;;;;;;;;;;;;;;7.84;38.14;100735.22;6112096;23;7042;-75
2022/03/11 01:05:15;;;;;;;;;;;;;;;7.78;38.06;100724.63;6136561;23;6936;-75
2022/03/11 01:07:41;;;;;;;;;;;;;;;7.71;38.09;100725.88;6112204;23;6775;-75
2022/03/11 01:10:08;;;;;;;;;;;;;;;7.66;38.56;100728.94;6111533;23;6937;-75
2022/03/11 01:12:35;;;;;;;;;;;;;;;7.59;38.41;100728.53;6110899;23;7261;-75
2022/03/11 01:15:01;;;;;;;;;;;;;;;7.54;38.83;100722.25;6112805;23;6786;-75
2022/03/11 01:17:26;;;;;;;;;;;;;;;7.50;38.71;100716.06;6111307;23;7400;-75
2022/03/11 01:19:53;;;;;;;;;;;;;;;7.49;39.00;100715.94;6134944;23;6897;-75
2022/03/11 01:22:18;;;;;;;;;;;;;;;7.47;38.77;100708.19;6110862;23;7200;-75
2022/03/11 01:24:44;;;;;;;;;;;;;;;7.46;39.06;100710.66;6111185;23;6782;-75
2022/03/11 01:27:10;;;;;;;;;;;;;;;7.46;39.03;100714.06;6112263;23;6786;-75
2022/03/11 01:29:35;;;;;;;;;;;;;;;7.46;38.97;100705.56;6111054;23;6842;-75
2022/03/11 01:32:01;;;;;;;;;;;;;;;7.44;38.86;100705.44;6110984;23;6775;-75
2022/03/11 01:34:27;;;;;;;;;;;;;;;7.46;38.94;100697.91;6113910;23;6875;-75
2022/03/11 01:36:52;;;;;;;;;;;;;;;7.46;38.88;100690.25;6110554;23;7132;-75
2022/03/11 01:39:18;;;;;;;;;;;;;;;7.47;39.62;100687.78;6111181;23;6802;-75
2022/03/11 01:41:44;;;;;;;;;;;;;;;7.49;39.53;100690.44;6112412;23;6895;-75
2022/03/11 01:44:10;;;;;;;;;;;;;;;7.51;38.79;100686.31;6085204;23;6861;-75
2022/03/11 01:46:37;;;;;;;;;;;;;;;7.55;39.47;100684.84;6136350;23;6862;-75
2022/03/11 01:49:07;;;;;;;;;;;;;;;7.60;38.95;100679.25;6136109;23;6982;-75
2022/03/11 01:51:37;;;;;;;;;;;;;;;7.68;38.78;100671.22;6111049;23;6867;-75
2022/03/11 01:54:03;;;;;;;;;;;;;;;7.76;39.27;100670.06;6111334;23;7324;-75
2022/03/11 01:56:31;;;;;;;;;;;;;;;7.85;39.43;100670.63;6111576;23;7042;-75
2022/03/11 01:58:57;;;;;;;;;;;;;;;7.91;38.88;100660.78;6111148;23;6973;-75
2022/03/11 02:01:25;;;;;;;;;;;;;;;7.98;38.24;100658.63;6109330;23;6823;-75
2022/03/11 02:03:51;;;;;;;;;;;;;;;8.04;38.47;100656.47;6113843;23;6874;-75
2022/03/11 02:06:19;;;;;;;;;;;;;;;8.05;38.77;100648.91;6111539;23;6774;-75
2022/03/11 02:08:45;;;;;;;;;;;;;;;8.08;38.55;100642.25;6110182;23;6975;-75
2022/03/11 02:11:11;;;;;;;;;;;;;;;8.11;38.31;100643.31;6135385;23;7044;-75
2022/03/11 02:13:51;;;;;;;;;;;;;;;8.15;38.59;100645.25;6113301;23;6854;-75
2022/03/11 02:16:23;;;;;;;;;;;;;;;8.19;37.82;100636.97;6111784;23;6867;-75
2022/03/11 02:18:49;;;;;;;;;;;;;;;8.23;38.40;100634.63;6134876;23;7234;-75
2022/03/11 02:21:17;;;;;;;;;;;;;;;8.26;37.76;100637.38;6110754;23;7140;-75
2022/03/11 02:23:56;;;;;;;;;;;;;;;8.28;38.26;100631.56;6109445;23;7851;-75
2022/03/11 02:26:26;;;;;;;;;;;;;;;8.27;37.23;100624.72;6112373;23;6954;-75
2022/03/11 02:28:55;;;;;;;;;;;;;;;8.29;37.44;100632.44;6111161;23;6787;-75
2022/03/11 02:31:25;;;;;;;;;;;;;;;8.30;37.24;100626.53;6109994;23;6941;-75
2022/03/11 02:33:51;;;;;;;;;;;;;;;8.29;37.29;100623.13;6112016;23;6790;-75
2022/03/11 02:36:18;;;;;;;;;;;;;;;8.31;37.39;100625.78;6112999;23;6794;-75
2022/03/11 02:38:44;;;;;;;;;;;;;;;8.32;37.74;100627.53;6113892;23;6783;-75
2022/03/11 02:41:10;;;;;;;;;;;;;;;8.33;38.00;100621.63;6137263;23;6982;-75
2022/03/11 02:43:36;;;;;;;;;;;;;;;8.34;38.18;100620.84;6113486;23;6766;-75
2022/03/11 02:46:03;;;;;;;;;;;;;;;8.38;37.20;100615.13;6112847;23;6787;-75
2022/03/11 02:48:29;;;;;;;;;;;;;;;8.40;37.21;100610.13;6064856;23;7017;-75
2022/03/11 02:50:55;;;;;;;;;;;;;;;8.44;37.75;100614.59;6112726;23;6775;-75
2022/03/11 02:53:21;;;;;;;;;;;;;;;8.44;37.02;100618.06;6113349;23;6779;-75
2022/03/11 02:55:47;;;;;;;;;;;;;;;8.45;37.62;100613.81;6065294;23;6986;-75
2022/03/11 02:58:12;;;;;;;;;;;;;;;8.44;37.28;100612.94;6114654;23;6782;-75
2022/03/11 03:00:38;;;;;;;;;;;;;;;8.43;37.13;100608.63;6112802;23;6974;-75
2022/03/11 03:03:04;;;;;;;;;;;;;;;8.42;37.20;100603.41;6118804;23;6973;-75
2022/03/11 03:05:30;;;;;;;;;;;;;;;8.39;37.23;100601.56;6093047;23;6922;-75
2022/03/11 03:07:56;;;;;;;;;;;;;;;8.38;36.62;100604.91;6093678;23;7044;-75
2022/03/11 03:10:22;;;;;;;;;;;;;;;8.38;36.97;100596.38;6116398;23;6994;-75
2022/03/11 03:12:48;;;;;;;;;;;;;;;8.38;36.78;100606.59;6116344;23;8252;-75
2022/03/11 03:15:14;;;;;;;;;;;;;;;8.40;36.64;100610.13;6116815;23;7168;-75
2022/03/11 03:17:40;;;;;;;;;;;;;;;8.42;36.62;100603.41;6114789;23;6774;-75
2022/03/11 03:20:08;;;;;;;;;;;;;;;8.42;37.22;100601.75;6116516;23;7066;-75
2022/03/11 03:22:35;;;;;;;;;;;;;;;8.43;37.66;100606.06;6116949;23;6831;-75
2022/03/11 03:25:03;;;;;;;;;;;;;;;8.45;37.18;100604.50;6115218;23;7437;-75
2022/03/11 03:27:29;;;;;;;;;;;;;;;8.47;36.80;100607.16;6118511;23;6787;-75
2022/03/11 03:29:55;;;;;;;;;;;;;;;8.48;36.23;100603.81;6116347;23;6998;-75
2022/03/11 03:32:20;;;;;;;;;;;;;;;8.47;37.32;100597.78;6113806;23;7887;-76
2022/03/11 03:34:46;;;;;;;;;;;;;;;8.50;36.30;100597.09;6116388;23;7095;-76
2022/03/11 03:37:12;;;;;;;;;;;;;;;8.53;36.58;100592.19;6118378;23;6779;-76
2022/03/11 03:39:41;;;;;;;;;;;;;;;8.55;36.58;100594.84;6117626;23;7176;-76
2022/03/11 03:42:08;;;;;;;;;;;;;;;8.58;37.13;100589.91;6118008;23;6870;-76
2022/03/11 03:44:34;;;;;;;;;;;;;;;8.58;36.81;100590.81;6117891;23;6782;-76
2022/03/11 03:46:59;;;;;;;;;;;;;;;8.59;36.72;100589.13;6091526;23;7105;-76
2022/03/11 03:49:25;;;;;;;;;;;;;;;8.59;36.20;100587.47;6114666;23;6807;-76
2022/03/11 03:51:52;;;;;;;;;;;;;;;8.61;37.01;100588.44;6116208;23;7175;-76
2022/03/11 03:54:18;;;;;;;;;;;;;;;8.61;36.57;100585.88;6116827;23;7027;-76
2022/03/11 03:56:45;;;;;;;;;;;;;;;8.63;37.23;100592.75;6117523;23;6873;-75
2022/03/11 03:59:13;;;;;;;;;;;;;;;8.64;36.68;100587.72;6114439;23;6960;-75
2022/03/11 04:01:41;;;;;;;;;;;;;;;8.67;36.53;100589.59;6139091;23;7328;-75
2022/03/11 04:04:09;;;;;;;;;;;;;;;8.66;36.95;100591.25;6089256;23;7451;-75
2022/03/11 04:06:38;;;;;;;;;;;;;;;8.67;36.65;100600.69;6113678;23;6994;-76
2022/03/11 04:09:07;;;;;;;;;;;;;;;8.63;36.30;100591.09;6111087;23;6798;-76
2022/03/11 04:11:34;;;;;;;;;;;;;;;8.61;35.92;100590.13;6111955;23;6997;-76
2022/03/11 04:14:01;;;;;;;;;;;;;;;8.59;36.89;100586.56;6137107;23;6955;-76
2022/03/11 04:16:28;;;;;;;;;;;;;;;8.55;36.13;100584.63;6134385;23;6779;-76
2022/03/11 04:18:54;;;;;;;;;;;;;;;8.52;36.49;100580.22;6136001;23;7018;-76
2022/03/11 04:21:20;;;;;;;;;;;;;;;8.50;36.86;100576.66;6111830;23;6863;-76
2022/03/11 04:23:50;;;;;;;;;;;;;;;8.46;36.45;100575.59;6111348;23;7036;-76
2022/03/11 04:26:16;;;;;;;;;;;;;;;8.45;36.74;100576.38;6113175;23;6913;-76
2022/03/11 04:28:42;;;;;;;;;;;;;;;8.44;37.05;100576.28;6109557;23;6949;-76
2022/03/11 04:31:11;;;;;;;;;;;;;;;8.44;37.54;100581.41;6110363;23;6990;-76
2022/03/11 04:33:40;;;;;;;;;;;;;;;8.44;37.12;100579.75;6136545;23;7172;-76
2022/03/11 04:36:07;;;;;;;;;;;;;;;8.44;36.73;100576.28;6112936;23;6856;-76
2022/03/11 04:38:34;;;;;;;;;;;;;;;8.43;36.58;100577.97;6112958;23;7832;-76
2022/03/11 04:41:00;;;;;;;;;;;;;;;8.43;36.61;100583.09;6110549;23;7026;-76
2022/03/11 04:43:26;;;;;;;;;;;;;;;8.44;36.39;100584.84;6112204;23;6786;-75
2022/03/11 04:45:53;;;;;;;;;;;;;;;8.46;36.85;100580.69;6113867;23;7023;-75
2022/03/11 04:48:19;;;;;;;;;;;;;;;8.47;37.71;100582.47;6110574;23;6979;-75
2022/03/11 04:50:45;;;;;;;;;;;;;;;8.48;37.44;100574.00;6112521;23;6786;-75
2022/03/11 04:53:11;;;;;;;;;;;;;;;8.50;36.82;100573.22;6111558;23;7066;-75
2022/03/11 04:55:36;;;;;;;;;;;;;;;8.48;36.90;100571.44;6113051;23;6999;-75
2022/03/11 04:58:03;;;;;;;;;;;;;;;8.49;36.56;100577.47;6112275;23;6933;-75
2022/03/11 05:00:28;;;;;;;;;;;;;;;8.48;37.06;100574.00;6111940;23;6778;-76
2022/03/11 05:02:54;;;;;;;;;;;;;;;8.46;36.83;100580.69;6109337;23;7067;-76
2022/03/11 05:05:21;;;;;;;;;;;;;;;8.47;37.11;100564.59;6113178;23;6931;-76
2022/03/11 05:07:47;;;;;;;;;;;;;;;8.47;37.34;100571.38;6111898;23;7057;-75
2022/03/11 05:10:14;;;;;;;;;;;;;;;8.47;36.94;100567.13;6111872;23;6854;-75
2022/03/11 05:12:41;;;;;;;;;;;;;;;8.45;37.35;100565.28;6109086;23;6778;-76
2022/03/11 05:15:10;;;;;;;;;;;;;;;8.46;36.91;100565.38;6113402;23;6775;-76
2022/03/11 05:17:36;;;;;;;;;;;;;;;8.45;37.37;100563.63;6112227;23;6780;-76
2022/03/11 05:20:03;;;;;;;;;;;;;;;8.45;38.15;100563.63;6112402;23;7037;-76
2022/03/11 05:22:29;;;;;;;;;;;;;;;8.45;36.89;100565.28;6112317;23;6807;-75
2022/03/11 05:24:55;;;;;;;;;;;;;;;8.43;37.31;100560.09;6111889;23;6782;-75
2022/03/11 05:27:21;;;;;;;;;;;;;;;8.42;37.18;100560.88;6113758;23;6991;-76
2022/03/11 05:29:47;;;;;;;;;;;;;;;8.41;37.49;100556.56;6114146;23;6770;-76
2022/03/11 05:32:14;;;;;;;;;;;;;;;8.39;37.06;100558.13;6087297;23;6984;-76
2022/03/11 05:34:42;;;;;;;;;;;;;;;8.40;37.23;100551.38;6113907;23;7166;-76
2022/03/11 05:37:08;;;;;;;;;;;;;;;8.39;37.56;100547.91;6112681;23;7262;-76
2022/03/11 05:39:34;;;;;;;;;;;;;;;8.39;37.59;100537.69;6113602;23;6974;-76
2022/03/11 05:42:00;;;;;;;;;;;;;;;8.40;38.21;100539.50;6113976;23;6851;-76
2022/03/11 05:44:26;;;;;;;;;;;;;;;8.41;37.50;100532.69;6112795;23;7035;-76
2022/03/11 05:46:52;;;;;;;;;;;;;;;8.42;38.03;100521.69;6113208;23;6837;-76
2022/03/11 05:49:19;;;;;;;;;;;;;;;8.42;37.63;100530.25;6112535;23;7159;-75
2022/03/11 05:51:46;;;;;;;;;;;;;;;8.44;37.70;100530.31;6111628;23;6948;-76
2022/03/11 05:54:11;;;;;;;;;;;;;;;8.45;38.12;100525.31;6114143;23;6990;-75
2022/03/11 05:56:37;;;;;;;;;;;;;;;8.48;37.86;100522.06;6112446;23;6913;-76
2022/03/11 05:59:04;;;;;;;;;;;;;;;8.53;37.73;100524.91;6114446;23;6970;-76
2022/03/11 06:01:35;;;;;;;;;;;;;;;8.56;37.96;100530.19;6111159;23;6884;-76
2022/03/11 06:04:03;;;;;;;;;;;;;;;8.58;38.38;100528.59;6137460;23;6941;-76
2022/03/11 06:06:33;;;;;;;;;;;;;;;8.59;37.27;100521.03;6137370;23;6779;-76
2022/03/11 06:09:00;;;;;;;;;;;;;;;8.58;37.66;100531.16;6115412;23;6811;-76
2022/03/11 06:11:27;;;;;;;;;;;;;;;8.55;38.86;100515.66;6114527;23;6783;-76
2022/03/11 06:13:53;;;;;;;;;;;;;;;8.53;38.02;100514.69;6116710;23;6791;-76
2022/03/11 06:16:19;;;;;;;;;;;;;;;8.51;38.77;100512.03;6114813;23;6986;-76
2022/03/11 06:18:44;;;;;;;;;;;;;;;8.50;38.47;100517.91;6116752;23;6850;-76
2022/03/11 06:21:11;;;;;;;;;;;;;;;8.51;37.89;100529.91;6113665;23;8002;-76
2022/03/11 06:23:37;;;;;;;;;;;;;;;8.50;37.97;100524.69;6117146;23;7002;-76
2022/03/11 06:26:04;;;;;;;;;;;;;;;8.52;38.68;100528.25;6114557;23;6869;-75
2022/03/11 06:28:31;;;;;;;;;;;;;;;8.53;37.68;100530.03;6138819;23;7246;-75
2022/03/11 06:30:57;;;;;;;;;;;;;;;8.54;37.98;100536.88;6113598;23;6795;-76
2022/03/11 06:33:23;;;;;;;;;;;;;;;8.55;38.18;100538.66;6089435;23;6846;-76
2022/03/11 06:35:50;;;;;;;;;;;;;;;8.56;37.99;100542.97;6114486;23;6849;-76
2022/03/11 06:38:16;;;;;;;;;;;;;;;8.60;39.06;100547.47;6113467;23;6786;-76
2022/03/11 06:40:42;;;;;;;;;;;;;;;8.62;38.75;100545.88;6114340;23;7771;-76
2022/03/11 06:43:08;;;;;;;;;;;;;;;8.66;38.80;100552.06;6113876;23;6795;-76
2022/03/11 06:45:33;;;;;;;;;;;;;;;8.70;38.44;100542.09;6113991;23;6970;-76
2022/03/11 06:47:59;;;;;;;;;;;;;;;8.75;37.93;100550.03;6115448;23;7019;-76
2022/03/11 06:50:25;;;;;;;;;;;;;;;8.77;38.20;100551.00;6115891;23;6944;-76
2022/03/11 06:52:51;;;;;;;;;;;;;;;8.81;39.01;100547.81;6115615;23;7214;-76
2022/03/11 06:55:17;;;;;;;;;;;;;;;8.85;37.75;100554.88;6114876;23;6914;-76
2022/03/11 06:57:44;;;;;;;;;;;;;;;8.91;38.66;100553.44;6088995;23;6767;-76
2022/03/11 07:00:11;;;;;;;;;;;;;;;8.95;39.05;100550.28;6113579;23;7012;-76
2022/03/11 07:02:37;;;;;;;;;;;;;;;9.00;37.73;100548.88;6137274;23;8029;-76
2022/03/11 07:05:07;;;;;;;;;;;;;;;9.05;38.65;100549.13;6138330;23;6989;-75
2022/03/11 07:07:33;;;;;;;;;;;;;;;9.10;38.62;100561.38;6136781;23;7224;-75
2022/03/11 07:10:01;;;;;;;;;;;;;;;9.13;38.17;100538.56;6088364;23;7268;-75
2022/03/11 07:12:31;;;;;;;;;;;;;;;9.18;37.84;100538.81;6113426;23;6944;-75
2022/03/11 07:15:01;;;;;;;;;;;;;;;9.23;38.52;100539.06;6114380;23;6771;-75
2022/03/11 07:17:27;;;;;;;;;;;;;;;9.26;38.78;100537.53;6114233;23;7063;-75
2022/03/11 07:19:53;;;;;;;;;;;;;;;9.31;38.43;100540.34;6114624;23;7781;-75
2022/03/11 07:22:19;;;;;;;;;;;;;;;9.35;37.84;100536.28;6112458;23;7186;-76
2022/03/11 07:24:45;;;;;;;;;;;;;;;9.40;38.31;100552.78;6113332;23;6909;-76
2022/03/11 07:27:12;;;;;;;;;;;;;;;9.44;38.27;100541.91;6113470;23;6774;-76
2022/03/11 07:29:38;;;;;;;;;;;;;;;9.51;37.88;100538.00;6113588;23;6884;-76
2022/03/11 07:32:04;;;;;;;;;;;;;;;9.57;38.70;100533.22;6112514;23;6779;-76
2022/03/11 07:34:30;;;;;;;;;;;;;;;9.64;38.28;100537.88;6113460;23;6954;-76
2022/03/11 07:36:56;;;;;;;;;;;;;;;9.70;38.05;100527.09;6113830;23;7038;-75
2022/03/11 07:39:21;;;;;;;;;;;;;;;9.76;38.40;100524.88;6115078;23;7415;-75
2022/03/11 07:41:49;;;;;;;;;;;;;;;9.81;38.45;100523.41;6111678;23;6850;-75
2022/03/11 07:44:16;;;;;;;;;;;;;;;9.89;37.69;100531.50;6114388;23;6862;-76
2022/03/11 07:46:43;;;;;;;;;;;;;;;9.96;38.04;100532.72;6113356;23;6944;-76
2022/03/11 07:49:10;;;;;;;;;;;;;;;10.02;37.62;100516.81;6113361;23;6963;-76
2022/03/11 07:51:37;;;;;;;;;;;;;;;10.08;37.13;100528.25;6135936;23;6786;-76
2022/03/11 07:54:03;;;;;;;;;;;;;;;10.14;37.83;100528.56;6113567;23;6994;-76
2022/03/11 07:56:29;;;;;;;;;;;;;;;10.20;36.87;100521.97;6113917;23;7101;-76
2022/03/11 07:58:59;;;;;;;;;;;;;;;10.26;37.13;100532.56;6114090;23;7409;-76
2022/03/11 08:01:26;;;;;;;;;;;;;;;10.32;37.34;100526.88;6112955;23;6927;-76
2022/03/11 08:03:52;;;;;;;;;;;;;;;10.37;37.62;100515.16;6113811;23;7021;-76
2022/03/11 08:06:18;;;;;;;;;;;;;;;10.39;37.11;100519.56;6089761;23;6973;-76
2022/03/11 08:08:43;;;;;;;;;;;;;;;10.46;37.49;100514.78;6113624;23;7070;-76
2022/03/11 08:11:11;;;;;;;;;;;;;;;10.49;37.56;100515.81;6089156;23;6767;-76
2022/03/11 08:13:37;;;;;;;;;;;;;;;10.56;37.28;100519.56;6089161;23;7083;-76
2022/03/11 08:16:04;;;;;;;;;;;;;;;10.60;36.80;100511.22;6113616;23;6762;-76
2022/03/11 08:18:30;;;;;;;;;;;;;;;10.64;36.78;100502.88;6112827;23;6778;-76
2022/03/11 08:20:55;;;;;;;;;;;;;;;10.69;36.88;100511.66;6112978;23;6778;-76
2022/03/11 08:23:21;;;;;;;;;;;;;;;10.73;36.99;100502.44;6115076;23;6846;-76
2022/03/11 08:25:47;;;;;;;;;;;;;;;10.80;36.67;100516.44;6113183;23;8323;-76
2022/03/11 08:28:14;;;;;;;;;;;;;;;10.86;36.74;100492.78;6089809;23;6827;-76
2022/03/11 08:30:41;;;;;;;;;;;;;;;10.91;36.69;100507.63;6113313;23;7215;-75
2022/03/11 08:33:08;;;;;;;;;;;;;;;10.98;36.49;100509.66;6112503;23;7027;-76
2022/03/11 08:35:34;;;;;;;;;;;;;;;11.06;36.80;100507.47;6136986;23;6923;-75
2022/03/11 08:38:03;;;;;;;;;;;;;;;11.15;36.68;100516.38;6113131;23;7876;-75
2022/03/11 08:40:29;;;;;;;;;;;;;;;11.24;36.43;100516.81;6114036;23;6822;-76
2022/03/11 08:42:55;;;;;;;;;;;;;;;11.30;36.52;100517.13;6112910;23;6779;-76
2022/03/11 08:45:22;;;;;;;;;;;;;;;11.38;35.96;100512.31;6113209;23;7130;-76
2022/03/11 08:47:53;;;;;;;;;;;;;;;11.48;36.51;100518.78;6111673;23;7053;-76
2022/03/11 08:50:21;;;;;;;;;;;;;;;11.55;36.42;100515.69;6113156;23;6969;-76
2022/03/11 08:52:46;;;;;;;;;;;;;;;11.65;36.60;100511.84;6111233;23;6957;-76
2022/03/11 08:55:14;;;;;;;;;;;;;;;11.73;36.18;100510.50;6112482;23;6774;-76
2022/03/11 08:57:41;;;;;;;;;;;;;;;11.81;35.78;100506.59;6087932;23;7264;-76
2022/03/11 09:00:13;;;;;;;;;;;;;;;11.90;36.19;100507.81;6112256;23;6858;-76
2022/03/11 09:02:39;;;;;;;;;;;;;;;11.97;36.22;100504.69;6112323;23;6782;-76
2022/03/11 09:05:07;;;;;;;;;;;;;;;12.05;35.75;100500.81;6113123;23;7857;-76
2022/03/11 09:07:33;;;;;;;;;;;;;;;12.12;35.69;100507.13;6112313;23;6849;-76
2022/03/11 09:10:00;;;;;;;;;;;;;;;12.20;35.53;100499.72;6113098;23;7074;-76
2022/03/11 09:12:25;;;;;;;;;;;;;;;12.25;35.58;100493.06;6111908;23;6934;-76
2022/03/11 09:14:52;;;;;;;;;;;;;;;12.31;35.92;100501.06;6087988;23;7279;-76
2022/03/11 09:17:18;;;;;;;;;;;;;;;12.37;36.21;100495.28;6112748;23;6791;-76
2022/03/11 09:19:43;;;;;;;;;;;;;;;12.43;35.46;100494.66;6112878;23;7070;-76
2022/03/11 09:22:14;;;;;;;;;;;;;;;12.48;35.59;100486.34;6112107;23;7003;-76
2022/03/11 09:24:41;;;;;;;;;;;;;;;12.59;35.94;100476.50;6112883;23;6774;-76
2022/03/11 09:27:09;;;;;;;;;;;;;;;12.67;36.00;100481.09;6112796;23;6870;-76
2022/03/11 09:29:35;;;;;;;;;;;;;;;12.73;35.42;100479.63;6113874;23;7023;-76
2022/03/11 09:32:03;;;;;;;;;;;;;;;12.80;35.22;100479.91;6137410;23;7192;-76
2022/03/11 09:34:28;;;;;;;;;;;;;;;12.87;35.04;100484.44;6088054;23;6974;-76
2022/03/11 09:36:55;;;;;;;;;;;;;;;12.95;35.42;100479.63;6112711;23;6770;-75
2022/03/11 09:39:22;;;;;;;;;;;;;;;13.02;35.62;100479.03;6113065;23;6791;-75
2022/03/11 09:41:49;;;;;;;;;;;;;;;13.10;34.93;100479.34;6112096;23;6783;-75
2022/03/11 09:44:21;;;;;;;;;;;;;;;13.17;35.02;100466.78;6138530;23;6787;-75
2022/03/11 09:46:48;;;;;;;;;;;;;;;13.26;35.68;100473.94;6115157;23;7990;-76
2022/03/11 09:49:16;;;;;;;;;;;;;;;13.34;34.73;100469.13;6114861;23;7917;-76
2022/03/11 09:51:45;;;;;;;;;;;;;;;13.41;35.31;100463.34;6115789;23;6995;-76
2022/03/11 09:54:12;;;;;;;;;;;;;;;13.50;35.22;100459.41;6115528;23;6988;-76
2022/03/11 09:56:41;;;;;;;;;;;;;;;13.60;34.72;100456.34;6117268;23;6859;-76
2022/03/11 09:59:09;;;;;;;;;;;;;;;13.71;34.89;100451.59;6115344;23;6763;-76
2022/03/11 10:01:35;;;;;;;;;;;;;;;13.81;35.34;100458.81;6115518;23;7150;-76
2022/03/11 10:04:06;;;;;;;;;;;;;;;13.92;34.85;100459.22;6089577;23;6907;-76
2022/03/11 10:06:39;;;;;;;;;;;;;;;14.03;35.38;100449.25;6114650;23;6937;-76
2022/03/11 10:09:07;;;;;;;;;;;;;;;14.11;34.65;100446.97;6116410;23;7265;-76
2022/03/11 10:11:35;;;;;;;;;;;;;;;14.21;35.18;100438.72;6114663;23;6855;-76
2022/03/11 10:14:07;;;;;;;;;;;;;;;14.30;34.02;100441.63;6089931;23;6951;-76
2022/03/11 10:16:35;;;;;;;;;;;;;;;14.43;34.35;100431.69;6090920;23;7852;-75
2022/03/11 10:19:04;;;;;;;;;;;;;;;14.56;35.03;100431.25;6115185;23;6983;-76
2022/03/11 10:21:43;;;;;;;;;;;;;;;14.72;34.31;100434.34;6114037;23;6938;-76
2022/03/11 10:24:19;;;;;;;;;;;;;;;14.88;34.13;100440.88;6114743;23;7046;-76
2022/03/11 10:26:54;;;;;;;;;;;;;;;15.05;34.80;100433.66;6115167;23;6786;-76
2022/03/11 10:29:34;;;;;;;;;;;;;;;15.56;34.39;100431.69;6115379;23;6847;-76
2022/03/11 10:32:00;;;;;;;;;;;;;;;16.65;33.18;100421.53;6137776;23;6775;-76
2022/03/11 10:34:36;;;;;;;;;;;;;;;17.88;31.98;100408.53;6115914;23;7186;-76
2022/03/11 10:37:09;;;;;;;;;;;;;;;18.95;30.66;100389.50;6114600;23;7055;-76
2022/03/11 10:39:37;;;;;;;;;;;;;;;19.90;29.63;100389.72;6112961;23;6956;-76
2022/03/11 10:42:12;;;;;;;;;;;;;;;20.63;28.63;100382.50;6114477;23;7135;-76
2022/03/11 10:44:40;;;;;;;;;;;;;;;21.17;28.37;100382.81;6116003;23;6867;-77
2022/03/11 10:47:29;;;;;;;;;;;;;;;21.78;27.85;100368.19;6114235;23;6824;-77
2022/03/11 10:50:06;;;;;;;;;;;;;;;22.43;27.53;100374.28;6113199;23;6951;-77
2022/03/11 10:52:47;;;;;;;;;;;;;;;22.97;26.36;100362.84;6113517;23;6782;-76
2022/03/11 10:55:29;;;;;;;;;;;;;;;23.43;26.03;100353.94;6115730;23;7285;-76
2022/03/11 10:57:58;;;;;;;;;;;;;;;23.74;25.90;100353.75;6113923;23;6790;-76
2022/03/11 11:00:32;;;;;;;;;;;;;;;23.91;25.34;100358.84;6089835;23;7324;-77
2022/03/11 11:03:06;;;;;;;;;;;;;;;24.05;25.27;100350.06;6138170;23;7207;-77
2022/03/11 11:05:32;;;;;;;;;;;;;;;24.21;24.44;100351.63;6113875;23;7019;-77
2022/03/11 11:08:00;;;;;;;;;;;;;;;24.33;24.14;100342.78;6113901;23;7050;-77
2022/03/11 11:10:29;;;;;;;;;;;;;;;24.38;24.26;100345.38;6089076;23;7046;-77
2022/03/11 11:12:55;;;;;;;;;;;;;;;24.32;24.16;100342.78;6112726;23;7399;-77
2022/03/11 11:15:22;;;;;;;;;;;;;;;24.27;23.86;100340.22;6115071;23;7047;-77
2022/03/11 11:17:51;;;;;;;;;;;;;;;24.40;23.96;100335.72;6113869;23;6771;-76
2022/03/11 11:20:38;;;;;;;;;;;;;;;24.53;23.72;100334.72;6115083;23;6778;-77
2022/03/11 11:23:07;;;;;;;;;;;;;;;24.71;22.99;100313.56;6114259;23;6797;-76
2022/03/11 11:25:36;;;;;;;;;;;;;;;24.75;23.11;100316.13;6113943;23;6854;-76
2022/03/11 11:28:15;;;;;;;;;;;;;;;24.77;23.00;100298.63;6115241;23;6783;-76
2022/03/11 11:30:44;;;;;;;;;;;;;;;24.76;22.62;100306.50;6113896;23;6778;-76
2022/03/11 11:33:11;;;;;;;;;;;;;;;24.78;22.69;100308.25;6112395;23;7133;-76
2022/03/11 11:35:40;;;;;;;;;;;;;;;24.79;22.37;100283.78;6113987;23;6783;-76
2022/03/11 11:38:29;;;;;;;;;;;;;;;24.79;22.27;100280.31;6090230;23;6795;-76
2022/03/11 11:40:57;;;;;;;;;;;;;;;24.88;22.35;100272.34;6112988;23;7090;-76
2022/03/11 11:43:30;;;;;;;;;;;;;;;24.95;22.78;100270.50;6115495;23;6782;-76
2022/03/11 11:46:01;;;;;;;;;;;;;;;25.04;22.70;100269.47;6113622;23;6922;-76
2022/03/11 11:48:41;;;;;;;;;;;;;;;25.17;22.58;100271.06;6115189;23;6862;-76
2022/03/11 11:51:43;;;;;;;;;;;;;;;25.36;22.68;100263.75;6114574;23;7286;-76
2022/03/11 11:54:09;;;;;;;;;;;;;;;25.49;22.38;100271.41;6114321;23;7038;-76
2022/03/11 11:56:52;;;;;;;;;;;;;;;25.62;22.39;100266.88;6112708;23;6949;-76
2022/03/11 11:59:25;;;;;;;;;;;;;;;25.73;21.64;100274.59;6115564;23;6782;-76
2022/03/11 12:01:56;;;;;;;;;;;;;;;25.73;22.15;100271.97;6088391;23;7049;-77
2022/03/11 12:04:27;;;;;;;;;;;;;;;25.67;21.40;100253.69;6112118;23;7312;-77
2022/03/11 12:07:02;;;;;;;;;;;;;;;25.65;21.47;100258.97;6113247;23;7035;-77
2022/03/11 12:12:32;;;;;;;;;;;;;;;25.79;21.76;100248.25;6114420;23;6893;-77
2022/03/11 12:15:04;;;;;;;;;;;;;;;25.96;21.52;100253.19;6114260;23;6787;-77
2022/03/11 12:17:55;;;;;;;;;;;;;;;26.10;21.68;100242.41;6110243;23;6861;-77
2022/03/11 12:20:39;;;;;;;;;;;;;;;26.20;21.43;100240.50;6112957;23;6779;-77
2022/03/11 12:23:15;;;;;;;;;;;;;;;26.32;21.38;100247.28;6112983;23;7066;-77
2022/03/11 12:25:50;;;;;;;;;;;;;;;26.50;21.56;100226.78;6113643;23;7230;-77
2022/03/11 12:28:24;;;;;;;;;;;;;;;26.55;21.23;100219.66;6113487;23;6962;-77
2022/03/11 12:30:50;;;;;;;;;;;;;;;26.47;21.31;100220.72;6113172;23;6889;-77
2022/03/11 12:33:19;;;;;;;;;;;;;;;26.29;20.70;100206.16;6113462;23;6798;-77
2022/03/11 12:35:49;;;;;;;;;;;;;;;25.73;21.42;100208.97;6112367;23;6894;-77
2022/03/11 12:38:19;;;;;;;;;;;;;;;24.67;21.79;100218.41;6113427;23;6870;-77
2022/03/11 12:40:47;;;;;;;;;;;;;;;23.55;22.37;100219.59;6088420;23;7035;-77
2022/03/11 12:43:15;;;;;;;;;;;;;;;22.60;23.27;100209.75;6088539;23;6951;-77
2022/03/11 12:45:52;;;;;;;;;;;;;;;21.74;23.67;100220.41;6111751;23;6870;-76
2022/03/11 12:48:21;;;;;;;;;;;;;;;21.08;24.37;100219.47;6113509;23;6783;-76
2022/03/11 12:50:48;;;;;;;;;;;;;;;20.53;24.71;100212.34;6115016;23;7366;-76
2022/03/11 12:53:16;;;;;;;;;;;;;;;20.08;24.73;100214.72;6112511;23;6787;-76
2022/03/11 12:55:47;;;;;;;;;;;;;;;19.73;25.35;100195.41;6113110;23;7203;-76
2022/03/11 12:58:27;;;;;;;;;;;;;;;19.46;25.52;100202.13;6112658;23;7187;-76
2022/03/11 13:00:54;;;;;;;;;;;;;;;19.25;26.17;100202.81;6111764;23;6787;-76